sensor_id;sensor_type;location;lat;lon;timestamp;temperature;humidity
7196;DHT22;3639;51.308;5.624;2023-03-11T00:00:28;0.80;99.90
7196;DHT22;3639;51.308;5.624;2023-03-11T00:02:56;0.70;99.90
7196;DHT22;3639;51.308;5.624;2023-03-11T00:05:25;0.70;99.90
7196;DHT22;3639;51.308;5.624;2023-03-11T00:07:51;0.70;99.90
7196;DHT22;3639;51.308;5.624;2023-03-11T00:10:23;0.60;99.90
7196;DHT22;3639;51.308;5.624;2023-03-11T00:12:49;0.60;99.90
7196;DHT22;3639;51.308;5.624;2023-03-11T00:15:15;0.60;99.90
7196;DHT22;3639;51.308;5.624;2023-03-11T00:17:41;0.60;99.90
7196;DHT22;3639;51.308;5.624;2023-03-11T00:20:10;0.60;99.90
7196;DHT22;3639;51.308;5.624;2023-03-11T00:22:39;0.60;99.90
7196;DHT22;3639;51.308;5.624;2023-03-11T00:25:04;0.60;99.90
7196;DHT22;3639;51.308;5.624;2023-03-11T00:27:30;0.60;99.90
7196;DHT22;3639;51.308;5.624;2023-03-11T00:29:55;0.60;99.90
7196;DHT22;3639;51.308;5.624;2023-03-11T00:32:21;0.50;99.90
7196;DHT22;3639;51.308;5.624;2023-03-11T00:34:47;0.50;99.90
7196;DHT22;3639;51.308;5.624;2023-03-11T00:37:12;0.50;99.90
7196;DHT22;3639;51.308;5.624;2023-03-11T00:39:38;0.50;99.90
7196;DHT22;3639;51.308;5.624;2023-03-11T00:42:04;0.40;99.90
7196;DHT22;3639;51.308;5.624;2023-03-11T00:44:29;0.30;99.90
7196;DHT22;3639;51.308;5.624;2023-03-11T00:46:55;0.30;99.90
7196;DHT22;3639;51.308;5.624;2023-03-11T00:49:21;0.30;99.90
7196;DHT22;3639;51.308;5.624;2023-03-11T00:51:46;0.30;99.90
7196;DHT22;3639;51.308;5.624;2023-03-11T00:54:12;0.30;99.90
7196;DHT22;3639;51.308;5.624;2023-03-11T00:56:38;0.20;99.90
7196;DHT22;3639;51.308;5.624;2023-03-11T00:59:03;0.20;99.90
7196;DHT22;3639;51.308;5.624;2023-03-11T01:01:29;0.20;99.90
7196;DHT22;3639;51.308;5.624;2023-03-11T01:03:54;0.10;99.90
7196;DHT22;3639;51.308;5.624;2023-03-11T01:06:20;0.10;99.90
7196;DHT22;3639;51.308;5.624;2023-03-11T01:08:46;0.00;99.90
7196;DHT22;3639;51.308;5.624;2023-03-11T01:11:11;0.00;99.90
7196;DHT22;3639;51.308;5.624;2023-03-11T01:13:37;0.10;99.90
7196;DHT22;3639;51.308;5.624;2023-03-11T01:16:04;0.00;99.90
7196;DHT22;3639;51.308;5.624;2023-03-11T01:18:30;0.00;99.90
7196;DHT22;3639;51.308;5.624;2023-03-11T01:20:56;0.10;99.90
7196;DHT22;3639;51.308;5.624;2023-03-11T01:23:21;0.10;99.90
7196;DHT22;3639;51.308;5.624;2023-03-11T01:25:47;0.10;99.90
7196;DHT22;3639;51.308;5.624;2023-03-11T01:28:12;0.10;99.90
7196;DHT22;3639;51.308;5.624;2023-03-11T01:30:40;0.10;99.90
7196;DHT22;3639;51.308;5.624;2023-03-11T01:33:07;0.10;99.90
7196;DHT22;3639;51.308;5.624;2023-03-11T01:35:34;0.10;99.90
7196;DHT22;3639;51.308;5.624;2023-03-11T01:38:00;0.10;99.90
7196;DHT22;3639;51.308;5.624;2023-03-11T01:40:33;0.10;99.90
7196;DHT22;3639;51.308;5.624;2023-03-11T01:43:01;0.10;99.90
7196;DHT22;3639;51.308;5.624;2023-03-11T01:45:40;0.10;99.90
7196;DHT22;3639;51.308;5.624;2023-03-11T01:48:08;0.20;99.90
7196;DHT22;3639;51.308;5.624;2023-03-11T01:50:40;0.20;99.90
7196;DHT22;3639;51.308;5.624;2023-03-11T01:53:07;0.20;99.90
7196;DHT22;3639;51.308;5.624;2023-03-11T01:55:34;0.20;99.90
7196;DHT22;3639;51.308;5.624;2023-03-11T01:58:02;0.10;99.90
7196;DHT22;3639;51.308;5.624;2023-03-11T02:00:30;0.10;99.90
7196;DHT22;3639;51.308;5.624;2023-03-11T02:02:58;0.10;99.90
7196;DHT22;3639;51.308;5.624;2023-03-11T02:05:24;0.00;99.90
7196;DHT22;3639;51.308;5.624;2023-03-11T02:07:51;0.00;99.90
7196;DHT22;3639;51.308;5.624;2023-03-11T02:10:18;-0.10;99.90
7196;DHT22;3639;51.308;5.624;2023-03-11T02:12:44;0.00;99.90
7196;DHT22;3639;51.308;5.624;2023-03-11T02:15:11;0.00;99.90
7196;DHT22;3639;51.308;5.624;2023-03-11T02:17:39;0.00;99.90
7196;DHT22;3639;51.308;5.624;2023-03-11T02:22:47;0.00;99.90
7196;DHT22;3639;51.308;5.624;2023-03-11T02:27:48;-0.10;99.90
7196;DHT22;3639;51.308;5.624;2023-03-11T02:30:15;-0.20;99.90
7196;DHT22;3639;51.308;5.624;2023-03-11T02:32:43;-0.20;99.90
7196;DHT22;3639;51.308;5.624;2023-03-11T02:35:12;-0.30;99.90
7196;DHT22;3639;51.308;5.624;2023-03-11T02:37:47;-0.20;99.90
7196;DHT22;3639;51.308;5.624;2023-03-11T02:42:53;-0.20;99.90
7196;DHT22;3639;51.308;5.624;2023-03-11T02:45:23;-0.20;99.90
7196;DHT22;3639;51.308;5.624;2023-03-11T02:47:50;-0.30;99.90
7196;DHT22;3639;51.308;5.624;2023-03-11T02:50:17;-0.30;99.90
7196;DHT22;3639;51.308;5.624;2023-03-11T02:52:43;-0.20;99.90
7196;DHT22;3639;51.308;5.624;2023-03-11T02:55:10;-0.20;99.90
7196;DHT22;3639;51.308;5.624;2023-03-11T02:57:37;-0.20;99.90
7196;DHT22;3639;51.308;5.624;2023-03-11T03:00:03;-0.20;99.90
7196;DHT22;3639;51.308;5.624;2023-03-11T03:02:36;-0.20;99.90
7196;DHT22;3639;51.308;5.624;2023-03-11T03:05:02;-0.20;99.90
7196;DHT22;3639;51.308;5.624;2023-03-11T03:07:27;-0.20;99.90
7196;DHT22;3639;51.308;5.624;2023-03-11T03:09:53;-0.20;99.90
7196;DHT22;3639;51.308;5.624;2023-03-11T03:12:19;-0.30;99.90
7196;DHT22;3639;51.308;5.624;2023-03-11T03:14:44;-0.40;99.90
7196;DHT22;3639;51.308;5.624;2023-03-11T03:17:10;-0.40;99.90
7196;DHT22;3639;51.308;5.624;2023-03-11T03:19:35;-0.40;99.90
7196;DHT22;3639;51.308;5.624;2023-03-11T03:22:01;-0.40;99.90
7196;DHT22;3639;51.308;5.624;2023-03-11T03:24:27;-0.40;99.90
7196;DHT22;3639;51.308;5.624;2023-03-11T03:26:52;-0.40;99.90
7196;DHT22;3639;51.308;5.624;2023-03-11T03:29:18;-0.40;99.90
7196;DHT22;3639;51.308;5.624;2023-03-11T03:31:43;-0.40;99.90
7196;DHT22;3639;51.308;5.624;2023-03-11T03:34:09;-0.50;99.90
7196;DHT22;3639;51.308;5.624;2023-03-11T03:36:35;-0.50;99.90
7196;DHT22;3639;51.308;5.624;2023-03-11T03:39:01;-0.50;99.90
7196;DHT22;3639;51.308;5.624;2023-03-11T03:41:26;-0.50;99.90
7196;DHT22;3639;51.308;5.624;2023-03-11T03:43:52;-0.50;99.90
7196;DHT22;3639;51.308;5.624;2023-03-11T03:46:19;-0.50;99.90
7196;DHT22;3639;51.308;5.624;2023-03-11T03:48:45;-0.50;99.90
7196;DHT22;3639;51.308;5.624;2023-03-11T03:51:13;-0.40;99.90
7196;DHT22;3639;51.308;5.624;2023-03-11T03:53:39;-0.30;99.90
7196;DHT22;3639;51.308;5.624;2023-03-11T03:56:06;-0.40;99.90
7196;DHT22;3639;51.308;5.624;2023-03-11T03:58:32;-0.40;99.90
7196;DHT22;3639;51.308;5.624;2023-03-11T04:00:58;-0.40;99.90
7196;DHT22;3639;51.308;5.624;2023-03-11T04:03:24;-0.50;99.90
7196;DHT22;3639;51.308;5.624;2023-03-11T04:05:50;-0.40;99.90
7196;DHT22;3639;51.308;5.624;2023-03-11T04:08:16;-0.40;99.90
7196;DHT22;3639;51.308;5.624;2023-03-11T04:10:42;-0.50;99.90
7196;DHT22;3639;51.308;5.624;2023-03-11T04:13:08;-0.50;99.90
7196;DHT22;3639;51.308;5.624;2023-03-11T04:15:33;-0.60;99.90
7196;DHT22;3639;51.308;5.624;2023-03-11T04:17:59;-0.60;99.90
7196;DHT22;3639;51.308;5.624;2023-03-11T04:20:24;-0.60;99.90
7196;DHT22;3639;51.308;5.624;2023-03-11T04:22:50;-0.70;99.90
7196;DHT22;3639;51.308;5.624;2023-03-11T04:25:16;-0.80;99.90
7196;DHT22;3639;51.308;5.624;2023-03-11T04:27:41;-0.80;99.90
7196;DHT22;3639;51.308;5.624;2023-03-11T04:30:11;-0.80;99.90
7196;DHT22;3639;51.308;5.624;2023-03-11T04:32:37;-0.80;99.90
7196;DHT22;3639;51.308;5.624;2023-03-11T04:35:04;-0.80;99.90
7196;DHT22;3639;51.308;5.624;2023-03-11T04:37:29;-0.80;99.90
7196;DHT22;3639;51.308;5.624;2023-03-11T04:39:55;-0.80;99.90
7196;DHT22;3639;51.308;5.624;2023-03-11T04:42:20;-0.80;99.90
7196;DHT22;3639;51.308;5.624;2023-03-11T04:44:46;-0.80;99.90
7196;DHT22;3639;51.308;5.624;2023-03-11T04:47:12;-0.70;99.90
7196;DHT22;3639;51.308;5.624;2023-03-11T04:49:37;-0.70;99.90
7196;DHT22;3639;51.308;5.624;2023-03-11T04:52:03;-0.70;99.90
7196;DHT22;3639;51.308;5.624;2023-03-11T04:54:29;-0.70;99.90
7196;DHT22;3639;51.308;5.624;2023-03-11T04:56:54;-0.80;99.90
7196;DHT22;3639;51.308;5.624;2023-03-11T04:59:20;-0.80;99.90
7196;DHT22;3639;51.308;5.624;2023-03-11T05:01:46;-0.80;99.90
7196;DHT22;3639;51.308;5.624;2023-03-11T05:04:11;-0.70;99.90
7196;DHT22;3639;51.308;5.624;2023-03-11T05:06:37;-0.70;99.90
7196;DHT22;3639;51.308;5.624;2023-03-11T05:09:03;-0.70;99.90
7196;DHT22;3639;51.308;5.624;2023-03-11T05:11:30;-0.70;99.90
7196;DHT22;3639;51.308;5.624;2023-03-11T05:13:56;-0.70;99.90
7196;DHT22;3639;51.308;5.624;2023-03-11T05:16:21;-0.80;99.90
7196;DHT22;3639;51.308;5.624;2023-03-11T05:18:47;-0.80;99.90
7196;DHT22;3639;51.308;5.624;2023-03-11T05:21:13;-0.80;99.90
7196;DHT22;3639;51.308;5.624;2023-03-11T05:23:39;-0.80;99.90
7196;DHT22;3639;51.308;5.624;2023-03-11T05:26:05;-0.90;99.90
7196;DHT22;3639;51.308;5.624;2023-03-11T05:28:30;-1.00;99.90
7196;DHT22;3639;51.308;5.624;2023-03-11T05:30:56;-1.00;99.90
7196;DHT22;3639;51.308;5.624;2023-03-11T05:33:22;-1.00;99.90
7196;DHT22;3639;51.308;5.624;2023-03-11T05:35:47;-1.00;99.90
7196;DHT22;3639;51.308;5.624;2023-03-11T05:38:16;-1.00;99.90
7196;DHT22;3639;51.308;5.624;2023-03-11T05:40:41;-1.00;99.90
7196;DHT22;3639;51.308;5.624;2023-03-11T05:43:07;-1.00;99.90
7196;DHT22;3639;51.308;5.624;2023-03-11T05:45:33;-1.10;99.90
7196;DHT22;3639;51.308;5.624;2023-03-11T05:47:59;-1.10;99.90
7196;DHT22;3639;51.308;5.624;2023-03-11T05:50:24;-1.10;99.90
7196;DHT22;3639;51.308;5.624;2023-03-11T05:52:50;-1.10;99.90
7196;DHT22;3639;51.308;5.624;2023-03-11T05:55:16;-1.20;99.90
7196;DHT22;3639;51.308;5.624;2023-03-11T05:57:41;-1.20;99.90
7196;DHT22;3639;51.308;5.624;2023-03-11T06:00:07;-1.20;99.90
7196;DHT22;3639;51.308;5.624;2023-03-11T06:02:40;-1.20;99.90
7196;DHT22;3639;51.308;5.624;2023-03-11T06:05:06;-1.20;99.90
7196;DHT22;3639;51.308;5.624;2023-03-11T06:07:35;-1.30;99.90
7196;DHT22;3639;51.308;5.624;2023-03-11T06:10:03;-1.30;99.90
7196;DHT22;3639;51.308;5.624;2023-03-11T06:12:28;-1.30;99.90
7196;DHT22;3639;51.308;5.624;2023-03-11T06:14:54;-1.30;99.90
7196;DHT22;3639;51.308;5.624;2023-03-11T06:17:20;-1.30;99.90
7196;DHT22;3639;51.308;5.624;2023-03-11T06:19:45;-1.40;99.90
7196;DHT22;3639;51.308;5.624;2023-03-11T06:22:11;-1.30;99.90
7196;DHT22;3639;51.308;5.624;2023-03-11T06:24:36;-1.30;99.90
7196;DHT22;3639;51.308;5.624;2023-03-11T06:27:02;-1.20;99.90
7196;DHT22;3639;51.308;5.624;2023-03-11T06:29:29;-1.20;99.90
7196;DHT22;3639;51.308;5.624;2023-03-11T06:31:54;-1.20;99.90
7196;DHT22;3639;51.308;5.624;2023-03-11T06:34:21;-1.20;99.90
7196;DHT22;3639;51.308;5.624;2023-03-11T06:36:48;-1.20;99.90
7196;DHT22;3639;51.308;5.624;2023-03-11T06:39:14;-1.20;99.90
7196;DHT22;3639;51.308;5.624;2023-03-11T06:41:40;-1.30;99.90
7196;DHT22;3639;51.308;5.624;2023-03-11T06:44:07;-1.20;99.90
7196;DHT22;3639;51.308;5.624;2023-03-11T06:46:33;-1.20;99.90
7196;DHT22;3639;51.308;5.624;2023-03-11T06:48:59;-1.20;99.90
7196;DHT22;3639;51.308;5.624;2023-03-11T06:51:26;-1.20;99.90
7196;DHT22;3639;51.308;5.624;2023-03-11T06:53:52;-1.20;99.90
7196;DHT22;3639;51.308;5.624;2023-03-11T06:56:19;-1.20;99.90
7196;DHT22;3639;51.308;5.624;2023-03-11T06:58:45;-1.20;99.90
7196;DHT22;3639;51.308;5.624;2023-03-11T07:01:20;-1.20;99.90
7196;DHT22;3639;51.308;5.624;2023-03-11T07:03:46;-1.10;99.90
7196;DHT22;3639;51.308;5.624;2023-03-11T07:06:14;-1.10;99.90
7196;DHT22;3639;51.308;5.624;2023-03-11T07:08:40;-1.10;99.90
7196;DHT22;3639;51.308;5.624;2023-03-11T07:13:36;-1.00;99.90
7196;DHT22;3639;51.308;5.624;2023-03-11T07:16:08;-1.00;99.90
7196;DHT22;3639;51.308;5.624;2023-03-11T07:18:35;-0.90;99.90
7196;DHT22;3639;51.308;5.624;2023-03-11T07:21:06;-0.90;99.90
7196;DHT22;3639;51.308;5.624;2023-03-11T07:23:32;-0.80;99.90
7196;DHT22;3639;51.308;5.624;2023-03-11T07:25:58;-0.70;99.90
7196;DHT22;3639;51.308;5.624;2023-03-11T07:28:26;-0.60;99.90
7196;DHT22;3639;51.308;5.624;2023-03-11T07:30:52;-0.50;99.90
7196;DHT22;3639;51.308;5.624;2023-03-11T07:33:18;-0.40;99.90
7196;DHT22;3639;51.308;5.624;2023-03-11T07:35:44;-0.30;99.90
7196;DHT22;3639;51.308;5.624;2023-03-11T07:38:11;-0.30;99.90
7196;DHT22;3639;51.308;5.624;2023-03-11T07:40:36;-0.20;99.90
7196;DHT22;3639;51.308;5.624;2023-03-11T07:43:02;-0.10;99.90
7196;DHT22;3639;51.308;5.624;2023-03-11T07:45:28;-0.10;99.90
7196;DHT22;3639;51.308;5.624;2023-03-11T07:47:54;0.00;99.90
7196;DHT22;3639;51.308;5.624;2023-03-11T07:50:19;0.10;99.90
7196;DHT22;3639;51.308;5.624;2023-03-11T07:52:47;0.20;99.90
7196;DHT22;3639;51.308;5.624;2023-03-11T07:55:13;0.30;99.90
7196;DHT22;3639;51.308;5.624;2023-03-11T07:57:39;0.30;99.90
7196;DHT22;3639;51.308;5.624;2023-03-11T08:00:05;0.30;99.90
7196;DHT22;3639;51.308;5.624;2023-03-11T08:02:30;0.40;99.90
7196;DHT22;3639;51.308;5.624;2023-03-11T08:04:56;0.50;99.90
7196;DHT22;3639;51.308;5.624;2023-03-11T08:07:22;0.60;99.90
7196;DHT22;3639;51.308;5.624;2023-03-11T08:09:48;0.70;99.90
7196;DHT22;3639;51.308;5.624;2023-03-11T08:12:14;0.90;99.90
7196;DHT22;3639;51.308;5.624;2023-03-11T08:14:40;1.00;99.90
7196;DHT22;3639;51.308;5.624;2023-03-11T08:17:08;1.20;99.90
7196;DHT22;3639;51.308;5.624;2023-03-11T08:19:34;1.30;99.90
7196;DHT22;3639;51.308;5.624;2023-03-11T08:22:01;1.40;99.90
7196;DHT22;3639;51.308;5.624;2023-03-11T08:24:27;1.50;99.90
7196;DHT22;3639;51.308;5.624;2023-03-11T08:26:52;1.60;99.90
7196;DHT22;3639;51.308;5.624;2023-03-11T08:29:19;1.70;99.90
7196;DHT22;3639;51.308;5.624;2023-03-11T08:31:45;1.90;99.90
7196;DHT22;3639;51.308;5.624;2023-03-11T08:34:15;2.00;99.90
7196;DHT22;3639;51.308;5.624;2023-03-11T08:36:41;2.10;99.90
7196;DHT22;3639;51.308;5.624;2023-03-11T08:39:07;2.20;99.90
7196;DHT22;3639;51.308;5.624;2023-03-11T08:41:33;2.30;99.90
7196;DHT22;3639;51.308;5.624;2023-03-11T08:43:58;2.50;99.90
7196;DHT22;3639;51.308;5.624;2023-03-11T08:46:30;2.60;99.90
7196;DHT22;3639;51.308;5.624;2023-03-11T08:48:57;2.80;99.90
7196;DHT22;3639;51.308;5.624;2023-03-11T08:51:24;2.90;99.90
7196;DHT22;3639;51.308;5.624;2023-03-11T08:53:51;3.00;99.90
7196;DHT22;3639;51.308;5.624;2023-03-11T08:56:16;3.10;99.90
7196;DHT22;3639;51.308;5.624;2023-03-11T08:58:43;3.20;99.90
7196;DHT22;3639;51.308;5.624;2023-03-11T09:01:10;3.20;99.90
7196;DHT22;3639;51.308;5.624;2023-03-11T09:03:36;3.20;99.90
7196;DHT22;3639;51.308;5.624;2023-03-11T09:06:04;3.30;99.90
7196;DHT22;3639;51.308;5.624;2023-03-11T09:08:31;3.40;99.90
7196;DHT22;3639;51.308;5.624;2023-03-11T09:10:57;3.50;99.90
7196;DHT22;3639;51.308;5.624;2023-03-11T09:13:23;3.50;99.90
7196;DHT22;3639;51.308;5.624;2023-03-11T09:15:49;3.60;99.90
7196;DHT22;3639;51.308;5.624;2023-03-11T09:18:16;3.70;99.90
7196;DHT22;3639;51.308;5.624;2023-03-11T09:20:42;3.70;99.90
7196;DHT22;3639;51.308;5.624;2023-03-11T09:23:10;3.70;99.90
7196;DHT22;3639;51.308;5.624;2023-03-11T09:25:36;3.80;99.90
7196;DHT22;3639;51.308;5.624;2023-03-11T09:28:02;3.80;99.90
7196;DHT22;3639;51.308;5.624;2023-03-11T09:30:28;3.80;99.90
7196;DHT22;3639;51.308;5.624;2023-03-11T09:32:54;3.90;99.90
7196;DHT22;3639;51.308;5.624;2023-03-11T09:35:19;3.90;99.90
7196;DHT22;3639;51.308;5.624;2023-03-11T09:37:45;4.00;99.90
7196;DHT22;3639;51.308;5.624;2023-03-11T09:40:21;4.10;99.90
7196;DHT22;3639;51.308;5.624;2023-03-11T09:43:24;4.20;99.90
7196;DHT22;3639;51.308;5.624;2023-03-11T09:46:09;4.00;99.90
7196;DHT22;3639;51.308;5.624;2023-03-11T09:49:05;4.00;99.90
7196;DHT22;3639;51.308;5.624;2023-03-11T09:51:38;4.10;99.90
7196;DHT22;3639;51.308;5.624;2023-03-11T09:54:11;4.20;99.90
7196;DHT22;3639;51.308;5.624;2023-03-11T09:56:38;4.40;99.90
7196;DHT22;3639;51.308;5.624;2023-03-11T09:59:17;4.60;99.90
7196;DHT22;3639;51.308;5.624;2023-03-11T10:01:47;4.80;99.90
7196;DHT22;3639;51.308;5.624;2023-03-11T10:04:37;4.80;99.90
7196;DHT22;3639;51.308;5.624;2023-03-11T10:07:14;5.00;99.90
7196;DHT22;3639;51.308;5.624;2023-03-11T10:09:56;5.10;99.90
7196;DHT22;3639;51.308;5.624;2023-03-11T10:15:28;5.60;99.90
7196;DHT22;3639;51.308;5.624;2023-03-11T10:18:33;5.60;99.80
7196;DHT22;3639;51.308;5.624;2023-03-11T10:24:31;5.20;97.20
7196;DHT22;3639;51.308;5.624;2023-03-11T10:27:10;5.10;97.60
7196;DHT22;3639;51.308;5.624;2023-03-11T10:29:55;5.10;96.80
7196;DHT22;3639;51.308;5.624;2023-03-11T10:32:49;5.30;96.80
7196;DHT22;3639;51.308;5.624;2023-03-11T10:35:22;5.30;96.60
7196;DHT22;3639;51.308;5.624;2023-03-11T10:38:02;5.60;95.30
7196;DHT22;3639;51.308;5.624;2023-03-11T10:40:40;5.60;95.60
7196;DHT22;3639;51.308;5.624;2023-03-11T10:43:20;5.80;95.80
7196;DHT22;3639;51.308;5.624;2023-03-11T10:45:51;5.80;95.40
7196;DHT22;3639;51.308;5.624;2023-03-11T10:48:18;5.90;95.10
7196;DHT22;3639;51.308;5.624;2023-03-11T10:50:57;5.90;96.00
7196;DHT22;3639;51.308;5.624;2023-03-11T10:53:25;5.80;96.40
7196;DHT22;3639;51.308;5.624;2023-03-11T10:55:57;5.70;96.90
7196;DHT22;3639;51.308;5.624;2023-03-11T10:58:25;5.80;97.80
7196;DHT22;3639;51.308;5.624;2023-03-11T11:01:14;6.00;95.80
7196;DHT22;3639;51.308;5.624;2023-03-11T11:03:47;6.20;94.50
7196;DHT22;3639;51.308;5.624;2023-03-11T11:06:34;6.20;94.00
7196;DHT22;3639;51.308;5.624;2023-03-11T11:09:26;6.30;92.90
7196;DHT22;3639;51.308;5.624;2023-03-11T11:12:04;6.10;93.20
7196;DHT22;3639;51.308;5.624;2023-03-11T11:14:50;6.10;92.20
7196;DHT22;3639;51.308;5.624;2023-03-11T11:17:36;6.10;93.70
7196;DHT22;3639;51.308;5.624;2023-03-11T11:20:02;6.10;94.60
7196;DHT22;3639;51.308;5.624;2023-03-11T11:22:38;6.10;94.60
7196;DHT22;3639;51.308;5.624;2023-03-11T11:25:35;6.10;94.70
7196;DHT22;3639;51.308;5.624;2023-03-11T11:28:13;6.40;93.40
7196;DHT22;3639;51.308;5.624;2023-03-11T11:30:52;6.60;93.70
7196;DHT22;3639;51.308;5.624;2023-03-11T11:33:25;6.80;92.90
7196;DHT22;3639;51.308;5.624;2023-03-11T11:35:53;6.70;92.40
7196;DHT22;3639;51.308;5.624;2023-03-11T11:38:22;6.80;91.10
7196;DHT22;3639;51.308;5.624;2023-03-11T11:40:49;6.80;92.00
7196;DHT22;3639;51.308;5.624;2023-03-11T11:43:18;6.80;91.60
7196;DHT22;3639;51.308;5.624;2023-03-11T11:46:00;6.70;92.70
7196;DHT22;3639;51.308;5.624;2023-03-11T11:54:26;6.50;90.90
7196;DHT22;3639;51.308;5.624;2023-03-11T11:56:54;6.40;90.10
7196;DHT22;3639;51.308;5.624;2023-03-11T11:59:22;6.40;91.50
7196;DHT22;3639;51.308;5.624;2023-03-11T12:10:27;6.70;94.10
7196;DHT22;3639;51.308;5.624;2023-03-11T12:15:58;6.90;92.70
7196;DHT22;3639;51.308;5.624;2023-03-11T12:18:38;7.00;93.60
7196;DHT22;3639;51.308;5.624;2023-03-11T12:29:42;6.90;92.10
7196;DHT22;3639;51.308;5.624;2023-03-11T12:32:21;6.80;92.90
7196;DHT22;3639;51.308;5.624;2023-03-11T12:34:47;6.80;93.50
7196;DHT22;3639;51.308;5.624;2023-03-11T12:37:13;6.70;92.70
7196;DHT22;3639;51.308;5.624;2023-03-11T12:39:41;6.70;91.70
7196;DHT22;3639;51.308;5.624;2023-03-11T12:44:36;6.60;88.70
7196;DHT22;3639;51.308;5.624;2023-03-11T12:47:25;6.40;86.90
7196;DHT22;3639;51.308;5.624;2023-03-11T12:52:57;6.20;92.10
7196;DHT22;3639;51.308;5.624;2023-03-11T12:55:28;6.30;92.40
7196;DHT22;3639;51.308;5.624;2023-03-11T12:58:00;6.20;91.40
7196;DHT22;3639;51.308;5.624;2023-03-11T13:00:52;6.20;91.10
7196;DHT22;3639;51.308;5.624;2023-03-11T13:03:38;6.20;91.00
7196;DHT22;3639;51.308;5.624;2023-03-11T13:06:38;6.10;91.10
7196;DHT22;3639;51.308;5.624;2023-03-11T13:09:13;6.10;91.50
7196;DHT22;3639;51.308;5.624;2023-03-11T13:11:47;6.20;90.30
7196;DHT22;3639;51.308;5.624;2023-03-11T13:16:47;6.30;88.80
7196;DHT22;3639;51.308;5.624;2023-03-11T13:21:52;6.20;87.80
7196;DHT22;3639;51.308;5.624;2023-03-11T13:29:52;6.20;87.60
7196;DHT22;3639;51.308;5.624;2023-03-11T13:36:07;6.30;91.40
7196;DHT22;3639;51.308;5.624;2023-03-11T13:39:05;6.40;87.60
7196;DHT22;3639;51.308;5.624;2023-03-11T13:41:36;6.40;89.60
7196;DHT22;3639;51.308;5.624;2023-03-11T13:47:23;6.10;90.60
7196;DHT22;3639;51.308;5.624;2023-03-11T13:50:05;6.10;87.20
7196;DHT22;3639;51.308;5.624;2023-03-11T13:52:37;6.10;90.40
7196;DHT22;3639;51.308;5.624;2023-03-11T13:55:17;6.10;88.60
7196;DHT22;3639;51.308;5.624;2023-03-11T13:57:52;6.10;87.60
7196;DHT22;3639;51.308;5.624;2023-03-11T14:00:21;6.00;87.80
7196;DHT22;3639;51.308;5.624;2023-03-11T14:03:00;6.00;88.10
7196;DHT22;3639;51.308;5.624;2023-03-11T14:05:32;6.00;91.00
7196;DHT22;3639;51.308;5.624;2023-03-11T14:11:02;6.00;90.60
7196;DHT22;3639;51.308;5.624;2023-03-11T14:13:30;6.10;90.00
7196;DHT22;3639;51.308;5.624;2023-03-11T14:18:26;6.30;90.10
7196;DHT22;3639;51.308;5.624;2023-03-11T14:20:52;6.50;89.60
7196;DHT22;3639;51.308;5.624;2023-03-11T14:23:18;6.50;88.50
7196;DHT22;3639;51.308;5.624;2023-03-11T14:25:44;6.50;89.50
7196;DHT22;3639;51.308;5.624;2023-03-11T14:28:19;6.50;90.60
7196;DHT22;3639;51.308;5.624;2023-03-11T14:30:56;6.50;89.20
7196;DHT22;3639;51.308;5.624;2023-03-11T14:33:23;6.60;90.30
7196;DHT22;3639;51.308;5.624;2023-03-11T14:36:02;6.60;90.30
7196;DHT22;3639;51.308;5.624;2023-03-11T14:38:30;6.60;91.60
7196;DHT22;3639;51.308;5.624;2023-03-11T14:41:00;6.60;90.40
7196;DHT22;3639;51.308;5.624;2023-03-11T14:43:33;6.70;90.20
7196;DHT22;3639;51.308;5.624;2023-03-11T14:46:02;6.90;90.30
7196;DHT22;3639;51.308;5.624;2023-03-11T14:48:34;7.00;90.00
7196;DHT22;3639;51.308;5.624;2023-03-11T14:51:04;7.00;90.20
7196;DHT22;3639;51.308;5.624;2023-03-11T14:53:41;7.10;89.50
7196;DHT22;3639;51.308;5.624;2023-03-11T14:56:19;7.00;89.20
7196;DHT22;3639;51.308;5.624;2023-03-11T15:01:24;6.90;90.80
7196;DHT22;3639;51.308;5.624;2023-03-11T15:03:52;7.00;90.00
7196;DHT22;3639;51.308;5.624;2023-03-11T15:06:23;7.00;89.30
7196;DHT22;3639;51.308;5.624;2023-03-11T15:08:56;7.00;89.80
7196;DHT22;3639;51.308;5.624;2023-03-11T15:11:25;7.10;89.80
7196;DHT22;3639;51.308;5.624;2023-03-11T15:13:54;7.10;90.60
7196;DHT22;3639;51.308;5.624;2023-03-11T15:16:32;7.20;90.40
7196;DHT22;3639;51.308;5.624;2023-03-11T15:19:00;7.10;89.90
7196;DHT22;3639;51.308;5.624;2023-03-11T15:21:26;7.10;89.00
7196;DHT22;3639;51.308;5.624;2023-03-11T15:23:58;7.10;89.60
7196;DHT22;3639;51.308;5.624;2023-03-11T15:26:32;7.00;88.30
7196;DHT22;3639;51.308;5.624;2023-03-11T15:29:12;6.90;88.00
7196;DHT22;3639;51.308;5.624;2023-03-11T15:31:38;6.90;89.90
7196;DHT22;3639;51.308;5.624;2023-03-11T15:42:08;6.70;88.10
7196;DHT22;3639;51.308;5.624;2023-03-11T15:47:21;6.70;90.00
7196;DHT22;3639;51.308;5.624;2023-03-11T15:49:47;6.70;90.40
7196;DHT22;3639;51.308;5.624;2023-03-11T15:52:14;6.70;87.00
7196;DHT22;3639;51.308;5.624;2023-03-11T15:54:40;6.70;88.70
7196;DHT22;3639;51.308;5.624;2023-03-11T15:57:08;6.80;87.20
7196;DHT22;3639;51.308;5.624;2023-03-11T15:59:36;6.70;88.90
7196;DHT22;3639;51.308;5.624;2023-03-11T16:02:02;6.70;87.80
7196;DHT22;3639;51.308;5.624;2023-03-11T16:04:28;6.70;89.10
7196;DHT22;3639;51.308;5.624;2023-03-11T16:06:53;6.60;88.80
7196;DHT22;3639;51.308;5.624;2023-03-11T16:09:19;6.60;89.20
7196;DHT22;3639;51.308;5.624;2023-03-11T16:11:45;6.70;87.50
7196;DHT22;3639;51.308;5.624;2023-03-11T16:14:19;6.70;88.20
7196;DHT22;3639;51.308;5.624;2023-03-11T16:16:45;6.60;87.70
7196;DHT22;3639;51.308;5.624;2023-03-11T16:19:11;6.70;87.60
7196;DHT22;3639;51.308;5.624;2023-03-11T16:21:41;6.70;85.10
7196;DHT22;3639;51.308;5.624;2023-03-11T16:24:14;6.60;86.30
7196;DHT22;3639;51.308;5.624;2023-03-11T16:26:40;6.60;87.60
7196;DHT22;3639;51.308;5.624;2023-03-11T16:29:06;6.60;88.40
7196;DHT22;3639;51.308;5.624;2023-03-11T16:31:32;6.50;88.40
7196;DHT22;3639;51.308;5.624;2023-03-11T16:33:59;6.40;89.50
7196;DHT22;3639;51.308;5.624;2023-03-11T16:36:24;6.40;88.70
7196;DHT22;3639;51.308;5.624;2023-03-11T16:38:50;6.40;89.80
7196;DHT22;3639;51.308;5.624;2023-03-11T16:41:16;6.40;88.70
7196;DHT22;3639;51.308;5.624;2023-03-11T16:43:42;6.40;88.30
7196;DHT22;3639;51.308;5.624;2023-03-11T16:46:08;6.30;89.40
7196;DHT22;3639;51.308;5.624;2023-03-11T16:48:34;6.20;90.30
7196;DHT22;3639;51.308;5.624;2023-03-11T16:51:00;6.10;90.80
7196;DHT22;3639;51.308;5.624;2023-03-11T16:53:26;6.00;91.10
7196;DHT22;3639;51.308;5.624;2023-03-11T16:55:52;5.90;91.20
7196;DHT22;3639;51.308;5.624;2023-03-11T16:58:18;5.70;91.30
7196;DHT22;3639;51.308;5.624;2023-03-11T17:00:44;5.60;91.70
7196;DHT22;3639;51.308;5.624;2023-03-11T17:03:14;5.60;92.60
7196;DHT22;3639;51.308;5.624;2023-03-11T17:05:40;5.40;93.50
7196;DHT22;3639;51.308;5.624;2023-03-11T17:08:06;5.40;94.00
7196;DHT22;3639;51.308;5.624;2023-03-11T17:10:40;5.30;94.30
7196;DHT22;3639;51.308;5.624;2023-03-11T17:13:09;5.20;95.10
7196;DHT22;3639;51.308;5.624;2023-03-11T17:15:35;5.20;96.90
7196;DHT22;3639;51.308;5.624;2023-03-11T17:18:05;5.10;96.70
7196;DHT22;3639;51.308;5.624;2023-03-11T17:20:32;5.00;97.70
7196;DHT22;3639;51.308;5.624;2023-03-11T17:22:58;5.00;97.10
7196;DHT22;3639;51.308;5.624;2023-03-11T17:25:24;4.90;97.20
7196;DHT22;3639;51.308;5.624;2023-03-11T17:27:50;4.80;97.10
7196;DHT22;3639;51.308;5.624;2023-03-11T17:30:15;4.70;98.60
7196;DHT22;3639;51.308;5.624;2023-03-11T17:32:41;4.70;98.90
7196;DHT22;3639;51.308;5.624;2023-03-11T17:35:07;4.60;99.90
7196;DHT22;3639;51.308;5.624;2023-03-11T17:37:33;4.60;99.90
7196;DHT22;3639;51.308;5.624;2023-03-11T17:39:58;4.50;99.90
7196;DHT22;3639;51.308;5.624;2023-03-11T17:42:24;4.50;99.90
7196;DHT22;3639;51.308;5.624;2023-03-11T17:44:54;4.40;99.90
7196;DHT22;3639;51.308;5.624;2023-03-11T17:47:19;4.40;99.90